メインページ
METAR-TAF:

METAR-TAF

空港 :

イスラマバード, パキスタン

ベナジル・ブット国際空港

緯度: 33-37N, 経度: 073-06E, 海抜: 507m

現時点の気象観測

当レポートは34分前の23:00(UTC)に作成
北東の風 6kt
気温 23°C
湿度 78%
気圧 1010 hPa
視程: 3000m
高度2500ftの千切れ雲あり
煙霧

METAR: OPRN 232300Z 05006KT 3000 HZ BKN025 23/19 Q1010.5/29.84

時間: 04:34 (23:34 UTC)

予報

当レポートは8時間4分前の15:30(UTC)に作成
予報は23日の 18時(UTC)から 24日の 24時(UTC)まで有効
南東の風 10kt
視程: 3000m
高度4000ftの雲はほとんどない
煙霧
24日の 01時(UTC)から 24日の 05時(UTC)まで一時的に
南東の風 10kt
視程: 2000m
高度4000ftの雲はほとんどない
24日の 05時(UTC)から 24日の 07時(UTC)まで徐々に
西/南西の風 10kt
視程: 6000m
高度4000ftの雲は散在している
24日の 12時(UTC)から 24日の 14時(UTC)まで徐々に
北/北東の風 10kt
視程: 4000m
煙霧

TAF: OPRN 231530Z 2318/2424 13010KT 3000 HZ FEW040 TEMPO 2401/2405 13010KT 2000 BR FEW040 BECMG 2405/2407 24010KT 6000 SCT040 BECMG 2412/2414 03010KT 4000 HZ NSC

4,000以上の空港の気象観測と天気予報(METAR報とTAF報)

利用可能な観測所は地図上に黄色い丸と赤い丸で示す。

丸の上にカーソルを重ねると観測所名を参照できる。

次にクリックすると気象観測と天気予報を参照できる。

マップの切り替え:黒色「×」印の緑ボタンをクリックして拡大、「-」印の緑ボタンをクリックして縮小、緑色の三角印をクリックして隣りの地図に切り替え


METAR-TAF: